createdAt,value
2018-09-18T00:01:26.694Z,11.03
2018-09-18T00:03:54.918Z,11.33
2018-09-18T00:06:23.183Z,10.53
2018-09-18T00:08:51.414Z,14.13
2018-09-18T00:11:19.636Z,11.40
2018-09-18T00:13:47.987Z,13.00
2018-09-18T00:16:16.214Z,10.87
2018-09-18T00:18:44.573Z,11.37
2018-09-18T00:21:12.902Z,15.03
2018-09-18T00:23:41.118Z,11.60
2018-09-18T00:26:09.442Z,11.60
2018-09-18T00:28:37.737Z,13.90
2018-09-18T00:31:06.286Z,13.77
2018-09-18T00:33:34.599Z,12.60
2018-09-18T00:36:03.004Z,11.90
2018-09-18T00:38:31.273Z,13.57
2018-09-18T00:40:59.506Z,12.87
2018-09-18T00:43:27.781Z,12.13
2018-09-18T00:45:56.078Z,12.93
2018-09-18T00:48:24.376Z,11.50
2018-09-18T00:50:52.646Z,11.63
2018-09-18T00:53:20.897Z,11.50
2018-09-18T00:55:49.317Z,12.27
2018-09-18T00:58:17.604Z,11.43
2018-09-18T01:00:52.688Z,14.63
2018-09-18T01:03:20.934Z,11.57
2018-09-18T01:05:49.278Z,11.60
2018-09-18T01:08:17.513Z,13.17
2018-09-18T01:10:45.792Z,13.43
2018-09-18T01:13:14.074Z,12.27
2018-09-18T01:15:42.326Z,12.20
2018-09-18T01:18:10.533Z,11.57
2018-09-18T01:20:38.813Z,11.50
2018-09-18T01:23:07.153Z,12.50
2018-09-18T01:25:36.698Z,11.77
2018-09-18T01:28:04.991Z,12.77
2018-09-18T01:30:33.458Z,12.03
2018-09-18T01:33:01.702Z,11.90
2018-09-18T01:35:30.058Z,12.07
2018-09-18T01:37:58.302Z,12.77
2018-09-18T01:40:26.513Z,13.30
2018-09-18T01:42:54.802Z,10.97
2018-09-18T01:45:23.054Z,11.60
2018-09-18T01:47:51.321Z,12.53
2018-09-18T01:50:19.570Z,12.18
2018-09-18T01:52:47.787Z,12.27
2018-09-18T01:55:16.398Z,11.13
2018-09-18T01:57:44.621Z,12.37
2018-09-18T02:00:12.878Z,11.73
2018-09-18T02:02:41.181Z,13.40
2018-09-18T02:05:09.411Z,14.73
2018-09-18T02:07:37.714Z,12.18
2018-09-18T02:10:06.195Z,13.20
2018-09-18T02:12:34.434Z,11.40
2018-09-18T02:15:02.878Z,12.30
2018-09-18T02:17:31.115Z,12.50
2018-09-18T02:19:59.441Z,13.15
2018-09-18T02:22:27.729Z,13.27
2018-09-18T02:24:55.961Z,12.03
2018-09-18T02:27:24.267Z,12.18
2018-09-18T02:29:52.597Z,13.10
2018-09-18T02:32:20.937Z,12.33
2018-09-18T02:34:49.204Z,12.00
2018-09-18T02:37:17.538Z,10.80
2018-09-18T02:39:45.775Z,13.80
2018-09-18T02:42:14.048Z,11.53
2018-09-18T02:44:42.338Z,12.63
2018-09-18T02:47:10.779Z,12.37
2018-09-18T02:49:39.116Z,13.10
2018-09-18T02:52:07.424Z,11.70
2018-09-18T02:54:35.653Z,12.10
2018-09-18T02:57:03.926Z,12.50
2018-09-18T02:59:32.195Z,13.00
2018-09-18T03:02:00.493Z,12.27
2018-09-18T03:04:28.781Z,12.37
2018-09-18T03:06:57.050Z,12.90
2018-09-18T03:09:25.300Z,11.50
2018-09-18T03:11:53.566Z,13.38
2018-09-18T03:14:21.854Z,14.05
2018-09-18T03:16:50.142Z,11.00
2018-09-18T03:19:18.431Z,11.70
2018-09-18T03:21:46.702Z,12.10
2018-09-18T03:24:14.912Z,12.50
2018-09-18T03:26:43.143Z,15.38
2018-09-18T03:29:11.458Z,12.75
2018-09-18T03:31:39.765Z,12.13
2018-09-18T03:34:08.160Z,11.43
2018-09-18T03:36:36.483Z,12.30
2018-09-18T03:39:05.723Z,13.55
2018-09-18T03:41:34.046Z,12.20
2018-09-18T03:44:02.284Z,12.47
2018-09-18T03:46:30.690Z,12.18
2018-09-18T03:48:58.924Z,12.60
2018-09-18T03:51:27.219Z,12.68
2018-09-18T03:53:55.497Z,12.78
2018-09-18T03:56:23.871Z,12.55
2018-09-18T03:58:52.145Z,12.70
2018-09-18T04:01:20.585Z,13.40
2018-09-18T04:03:48.832Z,14.63
2018-09-18T04:06:17.170Z,12.40
2018-09-18T04:08:45.397Z,14.05
2018-09-18T04:11:13.707Z,12.90
2018-09-18T04:13:41.930Z,12.10
2018-09-18T04:16:10.226Z,13.35
2018-09-18T04:18:38.594Z,13.98
2018-09-18T04:21:06.936Z,13.60
2018-09-18T04:23:35.235Z,13.90
2018-09-18T04:26:03.505Z,13.20
2018-09-18T04:28:31.788Z,12.43
2018-09-18T04:31:00.034Z,17.10
2018-09-18T04:33:28.297Z,12.27
2018-09-18T04:35:56.680Z,13.47
2018-09-18T04:38:25.041Z,13.18
2018-09-18T04:40:53.537Z,13.30
2018-09-18T04:43:21.857Z,13.07
2018-09-18T04:45:50.100Z,13.50
2018-09-18T04:48:18.335Z,13.90
2018-09-18T04:50:46.566Z,12.40
2018-09-18T04:53:14.897Z,14.67
2018-09-18T04:55:43.210Z,11.90
2018-09-18T04:58:11.431Z,12.80
2018-09-18T05:00:39.722Z,11.87
2018-09-18T05:03:07.950Z,12.73
2018-09-18T05:05:36.210Z,13.67
2018-09-18T05:08:04.492Z,12.63
2018-09-18T05:10:32.765Z,16.87
2018-09-18T05:13:01.071Z,12.00
2018-09-18T05:15:29.349Z,14.50
2018-09-18T05:17:57.650Z,13.20
2018-09-18T05:20:25.896Z,12.30
2018-09-18T05:22:54.280Z,11.80
2018-09-18T05:25:22.575Z,12.47
2018-09-18T05:27:50.814Z,11.85
2018-09-18T05:30:19.031Z,10.93
2018-09-18T05:32:47.369Z,11.48
2018-09-18T05:35:15.599Z,12.73
2018-09-18T05:37:43.865Z,11.50
2018-09-18T05:40:12.162Z,12.30
2018-09-18T05:42:40.719Z,11.37
2018-09-18T05:45:09.034Z,11.47
2018-09-18T05:47:37.270Z,11.87
2018-09-18T05:50:05.765Z,10.90
2018-09-18T05:52:34.051Z,11.93
2018-09-18T05:55:02.335Z,11.17
2018-09-18T05:57:30.662Z,11.68
2018-09-18T05:59:58.941Z,13.00
2018-09-18T06:02:27.154Z,11.40
2018-09-18T06:04:55.409Z,12.07
2018-09-18T06:07:23.624Z,14.57
2018-09-18T06:09:51.991Z,11.63
2018-09-18T06:12:20.719Z,12.10
2018-09-18T06:14:49.052Z,11.43
2018-09-18T06:17:17.331Z,11.03
2018-09-18T06:19:45.652Z,10.67
2018-09-18T06:22:13.978Z,12.40
2018-09-18T06:24:42.234Z,11.50
2018-09-18T06:27:11.058Z,10.67
2018-09-18T06:29:39.401Z,10.40
2018-09-18T06:32:07.770Z,11.97
2018-09-18T06:34:36.233Z,10.90
2018-09-18T06:37:04.609Z,11.80
2018-09-18T06:39:32.925Z,9.20
2018-09-18T06:42:01.146Z,20.50
2018-09-18T06:44:29.355Z,9.43
2018-09-18T06:46:57.586Z,9.53
2018-09-18T06:49:25.877Z,8.90
2018-09-18T06:51:54.390Z,11.00
2018-09-18T06:54:23.670Z,9.57
2018-09-18T06:56:51.941Z,10.70
2018-09-18T06:59:20.266Z,8.50
2018-09-18T07:01:48.566Z,8.10
2018-09-18T07:04:16.813Z,10.20
2018-09-18T07:06:45.089Z,9.27
2018-09-18T07:09:13.350Z,9.63
2018-09-18T07:11:41.606Z,9.30
2018-09-18T07:14:09.904Z,6.97
2018-09-18T07:16:38.239Z,6.57
2018-09-18T07:19:06.771Z,8.77
2018-09-18T07:21:35.159Z,7.13
2018-09-18T07:24:03.400Z,6.70
2018-09-18T07:26:31.722Z,5.50
2018-09-18T07:28:59.946Z,8.87
2018-09-18T07:31:28.195Z,6.17
2018-09-18T07:33:56.640Z,5.90
2018-09-18T07:36:24.820Z,5.80
2018-09-18T07:38:53.225Z,8.23
2018-09-18T07:41:21.447Z,6.07
2018-09-18T07:43:49.734Z,5.50
2018-09-18T07:46:17.954Z,5.70
2018-09-18T07:48:46.188Z,5.97
2018-09-18T07:51:14.444Z,5.63
2018-09-18T07:53:42.754Z,6.27
2018-09-18T07:56:11.058Z,6.07
2018-09-18T07:58:39.537Z,8.23
2018-09-18T08:01:07.778Z,5.23
2018-09-18T08:03:36.118Z,7.20
2018-09-18T08:06:04.413Z,7.67
2018-09-18T08:08:32.735Z,6.47
2018-09-18T08:11:01.055Z,6.03
2018-09-18T08:13:29.346Z,5.23
2018-09-18T08:15:57.666Z,5.60
2018-09-18T08:18:25.938Z,8.33
2018-09-18T08:20:54.169Z,6.73
2018-09-18T08:23:22.570Z,7.07
2018-09-18T08:25:50.855Z,6.30
2018-09-18T08:28:19.154Z,6.60
2018-09-18T08:30:47.533Z,7.67
2018-09-18T08:33:15.943Z,7.37
2018-09-18T08:35:44.168Z,7.47
2018-09-18T08:38:12.371Z,6.73
2018-09-18T08:40:40.639Z,7.53
2018-09-18T08:43:09.043Z,6.70
2018-09-18T08:45:37.361Z,6.40
2018-09-18T08:48:05.599Z,7.93
2018-09-18T08:50:33.879Z,5.30
2018-09-18T08:53:02.183Z,11.73
2018-09-18T08:55:30.403Z,7.73
2018-09-18T08:57:58.702Z,6.07
2018-09-18T09:00:27.043Z,4.80
2018-09-18T09:02:55.280Z,6.10
2018-09-18T09:05:23.528Z,5.10
2018-09-18T09:07:51.820Z,5.63
2018-09-18T09:10:20.004Z,6.60
2018-09-18T09:12:48.368Z,4.90
2018-09-18T09:15:16.694Z,5.63
2018-09-18T09:17:44.906Z,4.80
2018-09-18T09:20:13.426Z,4.77
2018-09-18T09:22:41.757Z,5.37
2018-09-18T09:25:09.957Z,6.00
2018-09-18T09:27:38.629Z,5.00
2018-09-18T09:30:06.922Z,6.80
2018-09-18T09:32:35.195Z,4.97
2018-09-18T09:35:03.421Z,7.30
2018-09-18T09:37:31.682Z,8.73
2018-09-18T09:39:59.899Z,6.47
2018-09-18T09:42:28.162Z,7.43
2018-09-18T09:44:56.484Z,6.43
2018-09-18T09:47:24.703Z,5.67
2018-09-18T09:49:53.414Z,5.23
2018-09-18T09:52:21.774Z,8.30
2018-09-18T09:54:50.115Z,8.27
2018-09-18T09:57:18.398Z,6.40
2018-09-18T09:59:46.609Z,8.40
2018-09-18T10:02:17.639Z,8.20
2018-09-18T10:04:46.406Z,5.27
2018-09-18T10:07:15.114Z,5.67
2018-09-18T10:09:43.340Z,6.00
2018-09-18T10:12:11.606Z,8.20
2018-09-18T10:14:39.924Z,7.60
2018-09-18T10:17:08.174Z,6.43
2018-09-18T10:19:36.447Z,8.37
2018-09-18T10:22:04.768Z,10.73
2018-09-18T10:24:33.090Z,7.90
2018-09-18T10:27:01.427Z,6.87
2018-09-18T10:29:30.642Z,8.23
2018-09-18T10:31:58.888Z,5.50
2018-09-18T10:34:27.123Z,6.10
2018-09-18T10:36:55.450Z,8.30
2018-09-18T10:39:23.758Z,8.50
2018-09-18T10:41:52.135Z,10.33
2018-09-18T10:44:20.371Z,6.77
2018-09-18T10:46:48.637Z,9.80
2018-09-18T10:49:18.894Z,7.93
2018-09-18T10:51:47.269Z,4.37
2018-09-18T10:54:15.574Z,8.03
2018-09-18T10:56:43.981Z,6.33
2018-09-18T10:59:12.246Z,11.60
2018-09-18T11:01:40.475Z,6.50
2018-09-18T11:04:08.747Z,8.20
2018-09-18T11:06:37.069Z,8.27
2018-09-18T11:09:08.013Z,10.43
2018-09-18T11:11:36.378Z,7.10
2018-09-18T11:14:04.720Z,8.30
2018-09-18T11:16:33.332Z,6.10
2018-09-18T11:19:01.604Z,7.13
2018-09-18T11:21:29.903Z,7.70
2018-09-18T11:23:58.163Z,8.77
2018-09-18T11:26:26.435Z,7.67
2018-09-18T11:28:54.745Z,9.27
2018-09-18T11:31:23.224Z,8.07
2018-09-18T11:33:51.452Z,9.13
2018-09-18T11:36:20.671Z,7.03
2018-09-18T11:38:48.926Z,6.50
2018-09-18T11:41:17.253Z,10.17
2018-09-18T11:43:45.550Z,8.00
2018-09-18T11:46:13.841Z,11.80
2018-09-18T11:48:41.832Z,7.50
2018-09-18T11:51:10.097Z,11.60
2018-09-18T11:53:38.341Z,9.17
2018-09-18T11:56:06.835Z,10.87
2018-09-18T11:58:35.159Z,7.23
2018-09-18T12:01:03.462Z,8.37
2018-09-18T12:03:31.799Z,9.63
2018-09-18T12:06:00.130Z,7.43
2018-09-18T12:08:28.412Z,7.93
2018-09-18T12:10:56.667Z,7.20
2018-09-18T12:13:25.486Z,8.20
2018-09-18T12:15:53.815Z,9.60
2018-09-18T12:18:22.106Z,14.63
2018-09-18T12:20:50.378Z,7.40
2018-09-18T12:23:18.627Z,7.27
2018-09-18T12:25:47.022Z,8.73
2018-09-18T12:28:16.063Z,7.23
2018-09-18T12:30:44.599Z,10.57
2018-09-18T12:33:33.120Z,6.30
2018-09-18T12:36:02.449Z,8.40
2018-09-18T12:38:30.928Z,6.70
2018-09-18T12:40:59.340Z,8.10
2018-09-18T12:43:27.585Z,6.27
2018-09-18T12:45:56.841Z,7.50
2018-09-18T12:48:25.223Z,7.60
2018-09-18T12:50:53.525Z,7.40
2018-09-18T12:53:21.767Z,6.80
2018-09-18T12:55:50.070Z,7.00
2018-09-18T12:58:18.362Z,7.70
2018-09-18T13:00:46.606Z,8.03
2018-09-18T13:03:14.936Z,9.10
2018-09-18T13:05:43.298Z,7.33
2018-09-18T13:08:15.652Z,4.60
2018-09-18T13:10:44.054Z,7.80
2018-09-18T13:13:12.371Z,7.13
2018-09-18T13:15:40.631Z,8.10
2018-09-18T13:18:08.923Z,6.53
2018-09-18T13:20:37.166Z,10.37
2018-09-18T13:23:05.202Z,9.80
2018-09-18T13:25:33.498Z,5.83
2018-09-18T13:28:01.851Z,6.47
2018-09-18T13:30:30.221Z,10.30
2018-09-18T13:32:58.454Z,8.20
2018-09-18T13:35:27.237Z,5.03
2018-09-18T13:37:56.049Z,8.97
2018-09-18T13:40:24.272Z,9.13
2018-09-18T13:42:52.951Z,11.60
2018-09-18T13:45:21.218Z,7.17
2018-09-18T13:47:49.473Z,11.33
2018-09-18T13:50:17.874Z,8.57
2018-09-18T13:52:46.085Z,7.53
2018-09-18T13:55:14.504Z,9.10
2018-09-18T13:57:42.886Z,6.87
2018-09-18T14:00:11.105Z,7.43
2018-09-18T14:02:39.445Z,9.93
2018-09-18T14:05:07.768Z,10.37
2018-09-18T14:07:36.011Z,12.27
2018-09-18T14:10:04.606Z,12.33
2018-09-18T14:12:32.813Z,8.07
2018-09-18T14:15:01.268Z,11.90
2018-09-18T14:17:29.533Z,9.80
2018-09-18T14:19:57.781Z,10.13
2018-09-18T14:22:26.026Z,13.43
2018-09-18T14:24:54.297Z,13.30
2018-09-18T14:27:22.656Z,10.93
2018-09-18T14:29:50.971Z,12.87
2018-09-18T14:32:19.309Z,10.83
2018-09-18T14:34:47.666Z,16.10
2018-09-18T14:37:15.926Z,9.87
2018-09-18T14:39:44.200Z,11.77
2018-09-18T14:42:12.748Z,11.23
2018-09-18T14:44:40.993Z,17.93
2018-09-18T14:47:09.290Z,15.90
2018-09-18T14:49:37.503Z,10.90
2018-09-18T14:52:05.536Z,14.13
2018-09-18T14:54:33.845Z,15.97
2018-09-18T14:57:02.149Z,12.37
2018-09-18T14:59:30.444Z,14.47
2018-09-18T15:01:58.814Z,11.53
2018-09-18T15:04:27.104Z,8.47
2018-09-18T15:06:55.511Z,17.87
2018-09-18T15:09:23.698Z,11.70
2018-09-18T15:11:51.960Z,11.77
2018-09-18T15:14:20.276Z,13.53
2018-09-18T15:16:48.548Z,14.30
2018-09-18T15:19:16.813Z,17.67
2018-09-18T15:21:45.101Z,17.73
2018-09-18T15:24:13.558Z,14.60
2018-09-18T15:26:41.836Z,12.10
2018-09-18T15:29:10.098Z,10.73
2018-09-18T15:31:38.713Z,12.60
2018-09-18T15:34:07.113Z,13.43
2018-09-18T15:36:35.317Z,16.63
2018-09-18T15:39:03.827Z,13.70
2018-09-18T15:41:32.169Z,17.13
2018-09-18T15:44:00.403Z,11.30
2018-09-18T15:46:28.521Z,20.37
2018-09-18T15:48:56.736Z,22.20
2018-09-18T15:51:24.963Z,15.40
2018-09-18T15:53:53.251Z,15.43
2018-09-18T15:56:21.543Z,20.30
2018-09-18T15:58:49.824Z,22.07
2018-09-18T16:01:18.211Z,19.77
2018-09-18T16:03:47.051Z,15.90
2018-09-18T16:06:15.291Z,19.20
2018-09-18T16:08:43.648Z,17.80
2018-09-18T16:11:11.991Z,17.80
2018-09-18T16:13:40.231Z,17.63
2018-09-18T16:16:08.762Z,13.27
2018-09-18T16:18:36.999Z,15.10
2018-09-18T16:21:05.444Z,17.60
2018-09-18T16:26:02.504Z,18.53
2018-09-18T16:28:30.862Z,13.30
2018-09-18T16:30:59.429Z,16.40
2018-09-18T16:33:27.731Z,16.03
2018-09-18T16:35:56.016Z,14.83
2018-09-18T16:38:24.640Z,13.80
2018-09-18T16:40:53.890Z,19.97
2018-09-18T16:43:22.535Z,22.00
2018-09-18T16:45:50.841Z,18.27
2018-09-18T16:48:19.139Z,12.40
2018-09-18T16:50:47.332Z,8.70
2018-09-18T16:53:15.589Z,11.10
2018-09-18T16:55:43.890Z,15.63
2018-09-18T16:58:12.131Z,11.63
2018-09-18T17:00:40.492Z,10.10
2018-09-18T17:03:08.443Z,14.23
2018-09-18T17:05:36.811Z,11.80
2018-09-18T17:08:05.068Z,13.67
2018-09-18T17:10:33.594Z,19.67
2018-09-18T17:13:01.571Z,24.63
2018-09-18T17:15:30.171Z,13.47
2018-09-18T17:17:58.448Z,11.10
2018-09-18T17:20:26.684Z,14.63
2018-09-18T17:22:54.946Z,18.17
2018-09-18T17:25:23.292Z,17.10
2018-09-18T17:27:51.244Z,11.53
2018-09-18T17:30:19.560Z,18.87
2018-09-18T17:32:47.822Z,22.93
2018-09-18T17:35:16.123Z,14.03
2018-09-18T17:37:44.161Z,13.30
2018-09-18T17:40:12.459Z,18.90
2018-09-18T17:42:41.788Z,23.83
2018-09-18T17:45:09.966Z,15.40
2018-09-18T17:47:38.199Z,16.07
2018-09-18T17:50:06.588Z,16.20
2018-09-18T17:52:34.766Z,15.83
2018-09-18T17:55:03.087Z,14.37
2018-09-18T17:57:31.381Z,13.80
2018-09-18T17:59:59.369Z,16.50
2018-09-18T18:02:27.633Z,16.30
2018-09-18T18:04:55.874Z,18.53
2018-09-18T18:07:23.918Z,17.27
2018-09-18T18:09:52.569Z,15.57
2018-09-18T18:12:20.598Z,10.40
2018-09-18T18:14:48.618Z,14.40
2018-09-18T18:17:16.945Z,15.30
2018-09-18T18:19:45.180Z,19.40
2018-09-18T18:22:13.306Z,15.80
2018-09-18T18:24:41.592Z,12.00
2018-09-18T18:27:09.916Z,18.30
2018-09-18T18:29:38.120Z,20.00
2018-09-18T18:32:06.532Z,16.60
2018-09-18T18:34:34.878Z,17.73
2018-09-18T18:37:03.225Z,17.13
2018-09-18T18:39:31.789Z,16.63
2018-09-18T18:42:00.043Z,13.23
2018-09-18T18:44:28.301Z,14.83
2018-09-18T18:46:56.531Z,11.43
2018-09-18T18:49:24.905Z,9.57
2018-09-18T18:51:53.273Z,10.37
2018-09-18T18:54:21.515Z,13.27
2018-09-18T18:56:49.772Z,12.57
2018-09-18T18:59:17.774Z,7.13
2018-09-18T19:01:46.033Z,12.70
2018-09-18T19:04:14.056Z,6.63
2018-09-18T19:06:42.384Z,6.17
2018-09-18T19:09:10.634Z,12.00
2018-09-18T19:11:39.920Z,11.77
2018-09-18T19:14:09.152Z,9.47
2018-09-18T19:16:37.751Z,6.13
2018-09-18T19:19:06.083Z,6.83
2018-09-18T19:21:34.410Z,10.97
2018-09-18T19:24:02.633Z,12.53
2018-09-18T19:26:30.906Z,7.60
2018-09-18T19:28:59.174Z,12.73
2018-09-18T19:31:27.578Z,8.77
2018-09-18T19:33:55.831Z,8.97
2018-09-18T19:36:24.081Z,13.10
2018-09-18T19:38:52.764Z,12.10
2018-09-18T19:41:20.974Z,9.90
2018-09-18T19:43:49.227Z,11.80
2018-09-18T19:46:17.660Z,12.70
2018-09-18T19:48:45.856Z,9.83
2018-09-18T19:51:14.153Z,11.00
2018-09-18T19:53:42.501Z,10.70
2018-09-18T19:56:10.816Z,8.73
2018-09-18T19:58:39.072Z,12.23
2018-09-18T20:01:07.285Z,10.80
2018-09-18T20:03:35.549Z,10.40
2018-09-18T20:06:03.778Z,10.37
2018-09-18T20:08:32.054Z,9.40
2018-09-18T20:11:00.290Z,10.90
2018-09-18T20:13:28.586Z,9.30
2018-09-18T20:15:56.805Z,9.80
2018-09-18T20:18:25.110Z,11.00
2018-09-18T20:20:53.394Z,12.97
2018-09-18T20:23:21.581Z,13.43
2018-09-18T20:25:50.960Z,4.80
2018-09-18T20:28:19.242Z,10.60
2018-09-18T20:30:47.474Z,8.73
2018-09-18T20:33:15.762Z,12.23
2018-09-18T20:35:44.171Z,11.87
2018-09-18T20:38:12.336Z,13.07
2018-09-18T20:40:40.581Z,8.63
2018-09-18T20:43:08.986Z,10.20
2018-09-18T20:45:37.067Z,8.53
2018-09-18T20:48:05.566Z,10.53
2018-09-18T20:50:33.853Z,7.30
2018-09-18T20:53:02.096Z,5.70
2018-09-18T20:55:30.359Z,8.83
2018-09-18T20:57:58.624Z,9.83
2018-09-18T21:00:26.928Z,15.90
2018-09-18T21:02:55.294Z,7.77
2018-09-18T21:05:23.583Z,8.60
2018-09-18T21:07:51.842Z,12.87
2018-09-18T21:10:20.105Z,5.70
2018-09-18T21:12:49.150Z,9.27
2018-09-18T21:15:17.439Z,7.67
2018-09-18T21:17:45.723Z,9.50
2018-09-18T21:20:13.962Z,13.00
2018-09-18T21:22:42.259Z,10.30
2018-09-18T21:25:16.150Z,6.57
2018-09-18T21:27:45.681Z,10.30
2018-09-18T21:30:14.834Z,7.23
2018-09-18T21:32:43.141Z,7.70
2018-09-18T21:35:11.400Z,9.60
2018-09-18T21:37:39.745Z,10.33
2018-09-18T21:40:08.075Z,8.70
2018-09-18T21:42:36.429Z,6.33
2018-09-18T21:45:04.709Z,6.73
2018-09-18T21:47:33.067Z,5.87
2018-09-18T21:50:01.280Z,9.30
2018-09-18T21:52:29.605Z,4.63
2018-09-18T21:54:57.890Z,6.13
2018-09-18T21:57:26.192Z,5.87
2018-09-18T21:59:54.519Z,5.33
2018-09-18T22:02:22.810Z,3.30
2018-09-18T22:04:51.219Z,5.00
2018-09-18T22:07:19.715Z,7.60
2018-09-18T22:09:48.227Z,5.50
2018-09-18T22:12:16.498Z,3.80
2018-09-18T22:14:44.933Z,6.33
2018-09-18T22:17:13.386Z,3.57
2018-09-18T22:19:41.707Z,7.93
2018-09-18T22:22:10.470Z,6.10
2018-09-18T22:24:39.017Z,4.73
2018-09-18T22:27:07.393Z,3.10
2018-09-18T22:29:35.867Z,5.50
2018-09-18T22:32:04.253Z,6.10
2018-09-18T22:34:32.463Z,5.37
2018-09-18T22:37:00.692Z,5.53
2018-09-18T22:39:29.595Z,4.30
2018-09-18T22:41:57.815Z,4.27
2018-09-18T22:44:26.043Z,4.40
2018-09-18T22:46:54.340Z,5.73
2018-09-18T22:49:22.594Z,5.20
2018-09-18T22:51:50.850Z,6.90
2018-09-18T22:54:19.105Z,9.93
2018-09-18T22:56:47.368Z,4.60
2018-09-18T22:59:15.690Z,6.17
2018-09-18T23:01:43.811Z,4.83
2018-09-18T23:04:12.137Z,6.93
2018-09-18T23:06:40.354Z,3.87
2018-09-18T23:09:08.872Z,8.60
2018-09-18T23:11:37.466Z,6.50
2018-09-18T23:14:05.717Z,3.93
2018-09-18T23:16:33.774Z,5.03
2018-09-18T23:19:02.376Z,3.43
2018-09-18T23:21:30.636Z,3.33
2018-09-18T23:23:58.865Z,5.63
2018-09-18T23:26:27.276Z,5.07
2018-09-18T23:28:55.910Z,3.50
2018-09-18T23:31:24.157Z,7.23
2018-09-18T23:33:52.347Z,3.80
2018-09-18T23:36:20.554Z,4.87
2018-09-18T23:38:48.864Z,9.03
2018-09-18T23:41:17.328Z,6.00
2018-09-18T23:43:45.533Z,5.07
2018-09-18T23:46:13.555Z,3.67
2018-09-18T23:48:41.778Z,7.40
2018-09-18T23:51:10.096Z,4.87
2018-09-18T23:53:38.367Z,6.33
2018-09-18T23:56:06.501Z,7.90
2018-09-18T23:58:34.946Z,5.63
